createdAt,value
2022-12-13T00:01:23.283Z,101098.88
2022-12-13T00:03:53.284Z,101092.38
2022-12-13T00:06:22.241Z,101095.59
2022-12-13T00:08:49.929Z,101097.06
2022-12-13T00:11:17.854Z,101092.13
2022-12-13T00:13:46.892Z,101088.41
2022-12-13T00:16:16.759Z,101084.94
2022-12-13T00:18:44.401Z,101089.59
2022-12-13T00:21:15.333Z,101093.28
2022-12-13T00:23:44.296Z,101089.56
2022-12-13T00:26:14.304Z,101089.13
2022-12-13T00:28:42.768Z,101096.72
2022-12-13T00:31:51.596Z,101088.84
2022-12-13T00:33:58.041Z,101086.75
2022-12-13T00:36:25.660Z,101074.91
2022-12-13T00:39:01.392Z,101082.53
2022-12-13T00:41:31.102Z,101079.94
2022-12-13T00:43:59.536Z,101077.78
2022-12-13T00:46:27.652Z,101079.44
2022-12-13T00:48:57.555Z,101074.97
2022-12-13T00:51:26.142Z,101070.72
2022-12-13T00:53:55.353Z,101071.06
2022-12-13T00:56:25.421Z,101063.38
2022-12-13T00:58:54.176Z,101058.63
2022-12-13T01:01:24.353Z,101062.38
2022-12-13T01:03:53.824Z,101057.16
2022-12-13T01:06:23.217Z,101052.16
2022-12-13T01:08:50.788Z,101055.06
2022-12-13T01:11:20.275Z,101055.16
2022-12-13T01:13:47.848Z,101058.00
2022-12-13T01:16:16.237Z,101058.16
2022-12-13T01:18:43.814Z,101057.06
2022-12-13T01:21:13.622Z,101056.94
2022-12-13T01:23:41.588Z,101060.31
2022-12-13T01:26:11.275Z,101050.91
2022-12-13T01:28:40.693Z,101050.78
2022-12-13T01:31:11.342Z,101058.91
2022-12-13T01:33:39.654Z,101054.63
2022-12-13T01:36:10.222Z,101051.06
2022-12-13T01:38:38.432Z,101043.44
2022-12-13T01:41:16.851Z,101042.16
2022-12-13T01:44:03.198Z,101040.09
2022-12-13T01:46:31.868Z,101048.16
2022-12-13T01:49:05.541Z,101058.22
2022-12-13T01:51:51.122Z,101051.63
2022-12-13T01:54:23.876Z,101053.38
2022-12-13T01:57:00.626Z,101049.53
2022-12-13T01:59:30.386Z,101046.22
2022-12-13T02:02:00.953Z,101049.69
2022-12-13T02:04:33.049Z,101051.69
2022-12-13T02:07:01.703Z,101048.38
2022-12-13T02:09:29.502Z,101040.28
2022-12-13T02:11:57.131Z,101042.19
2022-12-13T02:14:24.653Z,101035.53
2022-12-13T02:17:02.166Z,101040.28
2022-12-13T02:20:04.154Z,101039.00
2022-12-13T02:22:49.798Z,101025.56
2022-12-13T02:25:37.043Z,101032.00
2022-12-13T02:28:31.246Z,101030.69
2022-12-13T02:31:06.737Z,101022.25
2022-12-13T02:33:44.287Z,101015.63
2022-12-13T02:36:18.573Z,101019.78
2022-12-13T02:38:54.047Z,101013.47
2022-12-13T02:41:27.831Z,101012.03
2022-12-13T02:44:01.029Z,101011.09
2022-12-13T02:46:34.151Z,101013.34
2022-12-13T02:49:02.952Z,101013.47
2022-12-13T02:51:32.138Z,101008.00
2022-12-13T02:53:59.694Z,101020.09
2022-12-13T02:56:27.281Z,101010.00
2022-12-13T02:58:57.664Z,101018.78
2022-12-13T03:01:41.243Z,101020.94
2022-12-13T03:04:20.085Z,101017.16
2022-12-13T03:07:00.748Z,101018.84
2022-12-13T03:09:41.164Z,101010.16
2022-12-13T03:12:38.934Z,101004.94
2022-12-13T03:15:16.997Z,101004.22
2022-12-13T03:17:50.968Z,100995.56
2022-12-13T03:20:22.685Z,101012.19
2022-12-13T03:22:50.709Z,101007.56
2022-12-13T03:25:32.245Z,101008.69
2022-12-13T03:28:01.239Z,101011.94
2022-12-13T03:30:30.735Z,101006.84
2022-12-13T03:33:00.093Z,101006.25
2022-12-13T03:35:34.126Z,100996.88
2022-12-13T03:38:12.056Z,101002.78
2022-12-13T03:40:40.034Z,100994.34
2022-12-13T03:43:07.700Z,100994.25
2022-12-13T03:45:35.324Z,100990.34
2022-12-13T03:48:04.536Z,100989.59
2022-12-13T03:50:32.154Z,100977.59
2022-12-13T03:52:59.999Z,100993.75
2022-12-13T03:55:27.850Z,100988.28
2022-12-13T03:57:55.418Z,100989.44
2022-12-13T04:00:23.389Z,100985.75
2022-12-13T04:02:51.103Z,100987.78
2022-12-13T04:05:20.426Z,100991.34
2022-12-13T04:07:49.119Z,100991.78
2022-12-13T04:10:25.148Z,100985.41
2022-12-13T04:13:12.437Z,100994.78
2022-12-13T04:15:40.656Z,100986.09
2022-12-13T04:18:08.467Z,100986.34
2022-12-13T04:20:37.318Z,100983.41
2022-12-13T04:23:10.165Z,100988.88
2022-12-13T04:25:38.415Z,100972.25
2022-12-13T04:28:07.137Z,100970.44
2022-12-13T04:30:35.580Z,100979.50
2022-12-13T04:33:03.401Z,100974.75
2022-12-13T04:35:31.037Z,100972.97
2022-12-13T04:37:59.923Z,100966.66
2022-12-13T04:40:27.475Z,100973.44
2022-12-13T04:42:55.606Z,100971.31
2022-12-13T04:45:23.890Z,100965.84
2022-12-13T04:47:51.549Z,100960.38
2022-12-13T04:50:19.567Z,100961.44
2022-12-13T04:52:47.153Z,100959.31
2022-12-13T04:55:16.405Z,100956.56
2022-12-13T04:57:44.223Z,100969.75
2022-12-13T05:00:14.422Z,100973.81
2022-12-13T05:02:42.671Z,100967.53
2022-12-13T05:05:11.324Z,100966.66
2022-12-13T05:07:42.055Z,100969.88
2022-12-13T05:10:11.140Z,100966.16
2022-12-13T05:12:40.080Z,100966.66
2022-12-13T05:15:08.680Z,100966.66
2022-12-13T05:17:36.274Z,100967.59
2022-12-13T05:20:04.071Z,100964.13
2022-12-13T05:22:31.652Z,100965.41
2022-12-13T05:24:59.235Z,100963.88
2022-12-13T05:27:27.062Z,100968.03
2022-12-13T05:30:03.101Z,100959.47
2022-12-13T05:32:42.590Z,100961.28
2022-12-13T05:35:13.754Z,100960.22
2022-12-13T05:37:41.929Z,100957.00
2022-12-13T05:40:10.704Z,100955.69
2022-12-13T05:42:39.161Z,100956.41
2022-12-13T05:45:09.279Z,100956.44
2022-12-13T05:47:36.831Z,100952.81
2022-12-13T05:50:05.401Z,100954.00
2022-12-13T05:52:32.954Z,100957.09
2022-12-13T05:55:01.008Z,100951.25
2022-12-13T05:57:29.392Z,100964.78
2022-12-13T05:59:56.990Z,100958.72
2022-12-13T06:02:25.980Z,100956.81
2022-12-13T06:04:53.676Z,100952.78
2022-12-13T06:07:21.243Z,100953.13
2022-12-13T06:09:48.822Z,100956.53
2022-12-13T06:12:31.897Z,100961.44
2022-12-13T06:15:00.936Z,100957.59
2022-12-13T06:17:32.759Z,100963.66
2022-12-13T06:20:00.855Z,100961.09
2022-12-13T06:22:28.932Z,100960.88
2022-12-13T06:24:56.927Z,100956.47
2022-12-13T06:27:24.437Z,100964.03
2022-12-13T06:29:52.047Z,100956.81
2022-12-13T06:32:19.720Z,100959.16
2022-12-13T06:34:48.625Z,100967.50
2022-12-13T06:37:16.154Z,100956.03
2022-12-13T06:39:44.330Z,100963.16
2022-12-13T06:42:21.685Z,100959.59
2022-12-13T06:44:51.725Z,100961.50
2022-12-13T06:47:31.345Z,100959.59
2022-12-13T06:50:05.054Z,100959.50
2022-12-13T06:52:33.567Z,100971.31
2022-12-13T06:55:01.066Z,100975.16
2022-12-13T06:57:28.598Z,100966.22
2022-12-13T06:59:56.158Z,100973.56
2022-12-13T07:02:24.892Z,100966.34
2022-12-13T07:04:54.562Z,100968.28
2022-12-13T07:07:24.502Z,100975.00
2022-12-13T07:09:52.159Z,100977.09
2022-12-13T07:12:20.925Z,100976.38
2022-12-13T07:14:48.591Z,100975.63
2022-12-13T07:17:32.935Z,100978.94
2022-12-13T07:20:02.566Z,100968.94
2022-12-13T07:22:34.744Z,100976.03
2022-12-13T07:25:04.666Z,100973.63
2022-12-13T07:27:32.241Z,100968.16
2022-12-13T07:29:59.864Z,100966.25
2022-12-13T07:32:28.793Z,100971.25
2022-12-13T07:34:56.349Z,100963.75
2022-12-13T07:37:30.512Z,100974.56
2022-12-13T07:40:04.057Z,100976.03
2022-12-13T07:42:32.830Z,100983.84
2022-12-13T07:45:00.408Z,100981.72
2022-12-13T07:47:30.457Z,100983.69
2022-12-13T07:49:58.053Z,100990.28
2022-12-13T07:52:25.670Z,100993.84
2022-12-13T07:54:53.224Z,100996.41
2022-12-13T07:57:22.050Z,101003.81
2022-12-13T07:59:49.563Z,100996.16
2022-12-13T08:02:17.374Z,100994.97
2022-12-13T08:04:45.976Z,100996.16
2022-12-13T08:07:22.644Z,100989.22
2022-12-13T08:09:53.004Z,100995.63
2022-12-13T08:12:22.979Z,100994.72
2022-12-13T08:14:53.266Z,101000.72
2022-12-13T08:17:21.597Z,100998.03
2022-12-13T08:19:49.172Z,100997.34
2022-12-13T08:22:24.138Z,100994.53
2022-12-13T08:24:52.035Z,100996.84
2022-12-13T08:27:19.696Z,100992.78
2022-12-13T08:29:48.615Z,100987.13
2022-12-13T08:32:16.384Z,100996.19
2022-12-13T08:34:45.430Z,100989.41
2022-12-13T08:37:13.316Z,100976.88
2022-12-13T08:39:41.074Z,100971.56
2022-12-13T08:42:14.847Z,100973.81
2022-12-13T08:44:47.916Z,100974.06
2022-12-13T08:47:23.217Z,100973.91
2022-12-13T08:49:51.662Z,100977.56
2022-12-13T08:52:19.246Z,100972.41
2022-12-13T08:54:46.739Z,100970.78
2022-12-13T08:57:14.237Z,100972.22
2022-12-13T08:59:41.787Z,100976.13
2022-12-13T09:02:12.956Z,100964.53
2022-12-13T09:04:40.488Z,100976.88
2022-12-13T09:07:08.015Z,100971.44
2022-12-13T09:09:37.200Z,100976.19
2022-12-13T09:12:10.901Z,100976.50
2022-12-13T09:14:53.303Z,100978.88
2022-12-13T09:17:36.982Z,100983.22
2022-12-13T09:20:28.324Z,100977.88
2022-12-13T09:23:01.689Z,100989.06
2022-12-13T09:25:37.411Z,100986.59
2022-12-13T09:28:07.648Z,100981.91
2022-12-13T09:30:35.190Z,100989.94
2022-12-13T09:33:28.424Z,100985.53
2022-12-13T09:35:53.118Z,100986.22
2022-12-13T09:38:21.222Z,100974.50
2022-12-13T09:40:58.281Z,100975.59
2022-12-13T09:43:33.392Z,100978.53
2022-12-13T09:46:22.355Z,100980.06
2022-12-13T09:49:01.187Z,100968.00
2022-12-13T09:51:43.748Z,100971.16
2022-12-13T09:54:19.580Z,100956.66
2022-12-13T09:56:50.530Z,100961.91
2022-12-13T09:59:19.670Z,100969.69
2022-12-13T10:01:47.727Z,100963.72
2022-12-13T10:04:16.878Z,100961.00
2022-12-13T10:06:44.541Z,100958.66
2022-12-13T10:09:14.911Z,100959.28
2022-12-13T10:11:50.819Z,100960.41
2022-12-13T10:14:26.087Z,100961.28
2022-12-13T10:16:57.795Z,100965.69
2022-12-13T10:19:31.787Z,100957.56
2022-12-13T10:22:02.781Z,100957.16
2022-12-13T10:24:36.991Z,100958.81
2022-12-13T10:27:13.467Z,100957.31
2022-12-13T10:30:00.631Z,100957.72
2022-12-13T10:32:28.389Z,100957.16
2022-12-13T10:34:57.847Z,100961.03
2022-12-13T10:37:30.466Z,100952.06
2022-12-13T10:39:59.043Z,100944.84
2022-12-13T10:42:33.663Z,100945.81
2022-12-13T10:45:22.985Z,100945.53
2022-12-13T10:47:51.834Z,100943.03
2022-12-13T10:50:28.595Z,100945.13
2022-12-13T10:52:58.615Z,100938.91
2022-12-13T10:55:30.928Z,100942.22
2022-12-13T10:58:01.747Z,100926.88
2022-12-13T11:00:37.515Z,100929.91
2022-12-13T11:03:06.261Z,100920.53
2022-12-13T11:05:37.365Z,100914.03
2022-12-13T11:08:16.537Z,100913.59
2022-12-13T11:10:44.585Z,100910.44
2022-12-13T11:13:25.848Z,100910.69
2022-12-13T11:15:57.537Z,100910.44
2022-12-13T11:18:28.092Z,100909.88
2022-12-13T11:21:01.281Z,100909.31
2022-12-13T11:23:32.632Z,100899.63
2022-12-13T11:26:06.324Z,100904.06
2022-12-13T11:29:05.767Z,100903.78
2022-12-13T11:31:40.792Z,100894.66
2022-12-13T11:34:19.145Z,100878.88
2022-12-13T11:36:56.575Z,100889.41
2022-12-13T11:39:31.922Z,100886.38
2022-12-13T11:42:02.268Z,100889.41
2022-12-13T11:44:47.705Z,100874.97
2022-12-13T11:47:20.164Z,100879.44
2022-12-13T11:49:49.793Z,100869.16
2022-12-13T11:52:26.349Z,100873.91
2022-12-13T11:54:59.615Z,100862.56
2022-12-13T11:57:38.626Z,100875.97
2022-12-13T12:00:36.610Z,100874.41
2022-12-13T12:03:18.331Z,100874.28
2022-12-13T12:05:50.237Z,100868.56
2022-12-13T12:08:34.062Z,100865.38
2022-12-13T12:11:13.175Z,100867.25
2022-12-13T12:13:51.237Z,100865.81
2022-12-13T12:16:29.668Z,100858.31
2022-12-13T12:19:01.568Z,100862.19
2022-12-13T12:22:12.081Z,100861.03
2022-12-13T12:24:37.618Z,100856.94
2022-12-13T12:27:22.627Z,100856.88
2022-12-13T12:30:03.945Z,100844.66
2022-12-13T12:32:37.798Z,100850.91
2022-12-13T12:35:32.993Z,100854.56
2022-12-13T12:38:13.322Z,100852.47
2022-12-13T12:41:16.154Z,100854.13
2022-12-13T12:43:45.561Z,100850.28
2022-12-13T12:46:29.214Z,100844.31
2022-12-13T12:49:43.774Z,100840.31
2022-12-13T12:52:21.600Z,100836.16
2022-12-13T12:55:03.076Z,100833.09
2022-12-13T12:57:41.881Z,100836.41
2022-12-13T13:00:13.335Z,100833.88
2022-12-13T13:02:46.879Z,100843.03
2022-12-13T13:05:21.950Z,100838.94
2022-12-13T13:07:56.570Z,100840.78
2022-12-13T13:10:26.879Z,100837.47
2022-12-13T13:13:12.308Z,100831.44
2022-12-13T13:15:57.936Z,100832.47
2022-12-13T13:18:49.585Z,100830.59
2022-12-13T13:21:48.484Z,100828.91
2022-12-13T13:24:27.172Z,100843.47
2022-12-13T13:26:56.842Z,100834.34
2022-12-13T13:29:36.530Z,100838.47
2022-12-13T13:32:28.464Z,100841.19
2022-12-13T13:35:50.747Z,100835.03
2022-12-13T13:38:52.270Z,100843.03
2022-12-13T13:41:53.901Z,100831.63
2022-12-13T13:45:00.277Z,100833.31
2022-12-13T13:47:39.634Z,100831.94
2022-12-13T13:50:39.803Z,100826.00
2022-12-13T13:53:35.207Z,100819.88
2022-12-13T13:56:12.248Z,100819.13
2022-12-13T13:59:16.289Z,100820.72
2022-12-13T14:02:11.085Z,100817.22
2022-12-13T14:08:20.118Z,100821.97
2022-12-13T14:10:57.074Z,100805.34
2022-12-13T14:14:03.942Z,100811.00
2022-12-13T14:17:06.717Z,100818.06
2022-12-13T14:20:05.176Z,100815.19
2022-12-13T14:22:39.314Z,100816.06
2022-12-13T14:25:29.623Z,100829.09
2022-12-13T14:28:15.912Z,100825.38
2022-12-13T14:30:47.967Z,100818.84
2022-12-13T14:33:27.650Z,100818.97
2022-12-13T14:35:57.530Z,100813.72
2022-12-13T14:38:27.697Z,100815.66
2022-12-13T14:41:00.477Z,100809.66
2022-12-13T14:43:30.070Z,100809.84
2022-12-13T14:45:59.906Z,100804.00
2022-12-13T14:48:29.442Z,100800.56
2022-12-13T14:50:57.958Z,100793.63
2022-12-13T14:53:29.488Z,100786.34
2022-12-13T14:56:07.773Z,100786.03
2022-12-13T14:58:37.189Z,100793.91
2022-12-13T15:01:05.440Z,100800.25
2022-12-13T15:03:35.012Z,100786.97
2022-12-13T15:06:04.123Z,100785.38
2022-12-13T15:08:34.307Z,100787.47
2022-12-13T15:11:06.650Z,100778.75
2022-12-13T15:13:41.606Z,100787.56
2022-12-13T15:16:11.613Z,100782.59
2022-12-13T15:18:42.524Z,100784.84
2022-12-13T15:21:24.224Z,100787.56
2022-12-13T15:23:58.736Z,100782.03
2022-12-13T15:26:30.173Z,100776.78
2022-12-13T15:29:09.522Z,100783.41
2022-12-13T15:31:38.377Z,100786.44
2022-12-13T15:34:34.607Z,100788.25
2022-12-13T15:37:04.018Z,100785.81
2022-12-13T15:39:32.007Z,100788.44
2022-12-13T15:42:00.571Z,100782.09
2022-12-13T15:44:33.089Z,100792.63
2022-12-13T15:47:04.988Z,100789.91
2022-12-13T15:49:36.247Z,100790.75
2022-12-13T15:52:06.326Z,100790.63
2022-12-13T15:54:34.772Z,100787.72
2022-12-13T15:57:13.085Z,100788.81
2022-12-13T15:59:43.299Z,100779.41
2022-12-13T16:02:17.150Z,100777.78
2022-12-13T16:04:45.772Z,100776.94
2022-12-13T16:07:23.585Z,100776.25
2022-12-13T16:09:53.634Z,100772.22
2022-12-13T16:12:25.653Z,100779.31
2022-12-13T16:15:13.805Z,100779.41
2022-12-13T16:18:05.646Z,100783.81
2022-12-13T16:20:33.639Z,100776.38
2022-12-13T16:23:01.213Z,100774.88
2022-12-13T16:25:37.208Z,100773.63
2022-12-13T16:28:04.884Z,100779.41
2022-12-13T16:30:57.929Z,100780.66
2022-12-13T16:33:27.907Z,100787.69
2022-12-13T16:35:55.907Z,100784.25
2022-12-13T16:38:26.443Z,100786.56
2022-12-13T16:40:56.580Z,100781.34
2022-12-13T16:43:33.343Z,100789.16
2022-12-13T16:47:11.644Z,100791.25
2022-12-13T16:48:53.242Z,100770.81
2022-12-13T16:51:20.951Z,100780.22
2022-12-13T16:53:48.890Z,100782.03
2022-12-13T16:56:21.400Z,100782.72
2022-12-13T16:58:50.345Z,100778.03
2022-12-13T17:01:21.176Z,100782.69
2022-12-13T17:03:49.150Z,100789.31
2022-12-13T17:06:22.431Z,100787.06
2022-12-13T17:08:50.044Z,100789.94
2022-12-13T17:11:18.441Z,100783.59
2022-12-13T17:13:48.131Z,100776.03
2022-12-13T17:16:16.381Z,100772.28
2022-12-13T17:18:45.288Z,100763.34
2022-12-13T17:21:12.870Z,100762.47
2022-12-13T17:23:40.641Z,100765.16
2022-12-13T17:26:10.404Z,100761.16
2022-12-13T17:28:38.657Z,100753.97
2022-12-13T17:31:07.655Z,100756.88
2022-12-13T17:33:36.224Z,100753.78
2022-12-13T17:36:05.939Z,100753.38
2022-12-13T17:38:33.839Z,100754.34
2022-12-13T17:41:01.373Z,100754.88
2022-12-13T17:43:34.868Z,100762.84
2022-12-13T17:46:04.240Z,100757.59
2022-12-13T17:48:39.563Z,100750.38
2022-12-13T17:51:10.532Z,100753.56
2022-12-13T17:53:39.686Z,100743.88
2022-12-13T17:56:10.591Z,100746.69
2022-12-13T17:58:38.209Z,100733.66
2022-12-13T18:01:13.764Z,100743.97
2022-12-13T18:03:41.719Z,100754.25
2022-12-13T18:06:10.807Z,100749.13
2022-12-13T18:08:39.767Z,100752.47
2022-12-13T18:13:56.540Z,100739.25
2022-12-13T18:16:31.786Z,100741.34
2022-12-13T18:19:01.974Z,100739.66
2022-12-13T18:21:30.994Z,100736.50
2022-12-13T18:24:00.090Z,100728.53
2022-12-13T18:26:27.855Z,100734.16
2022-12-13T18:28:55.386Z,100735.81
2022-12-13T18:31:25.392Z,100731.00
2022-12-13T18:33:54.790Z,100725.19
2022-12-13T18:36:24.535Z,100724.94
2022-12-13T18:38:53.644Z,100722.72
2022-12-13T18:41:23.662Z,100724.75
2022-12-13T18:43:56.226Z,100722.50
2022-12-13T18:46:29.878Z,100722.03
2022-12-13T18:48:57.669Z,100737.91
2022-12-13T18:51:25.603Z,100728.19
2022-12-13T18:53:55.831Z,100726.41
2022-12-13T18:56:23.725Z,100718.16
2022-12-13T18:58:52.962Z,100724.06
2022-12-13T19:01:22.612Z,100722.84
2022-12-13T19:03:50.584Z,100720.44
2022-12-13T19:06:20.033Z,100717.78
2022-12-13T19:08:48.868Z,100722.81
2022-12-13T19:11:18.249Z,100724.53
2022-12-13T19:13:45.828Z,100725.13
2022-12-13T19:16:18.857Z,100728.41
2022-12-13T19:18:46.484Z,100728.16
2022-12-13T19:21:16.667Z,100727.22
2022-12-13T19:23:47.325Z,100722.97
2022-12-13T19:26:18.973Z,100730.88
2022-12-13T19:28:46.587Z,100727.94
2022-12-13T19:31:15.757Z,100725.34
2022-12-13T19:33:44.322Z,100726.94
2022-12-13T19:36:12.239Z,100731.97
2022-12-13T19:38:41.754Z,100726.88
2022-12-13T19:41:10.912Z,100726.44
2022-12-13T19:43:40.079Z,100725.84
2022-12-13T19:46:08.088Z,100725.31
2022-12-13T19:48:37.580Z,100727.22
2022-12-13T19:51:07.509Z,100723.97
2022-12-13T19:53:35.543Z,100725.06
2022-12-13T19:56:03.614Z,100723.91
2022-12-13T19:58:31.133Z,100712.91
2022-12-13T20:01:04.300Z,100714.84
2022-12-13T20:03:32.736Z,100722.28
2022-12-13T20:06:01.414Z,100714.78
2022-12-13T20:08:29.438Z,100709.41
2022-12-13T20:11:01.603Z,100708.47
2022-12-13T20:13:29.905Z,100702.69
2022-12-13T20:15:57.907Z,100708.38
2022-12-13T20:18:27.018Z,100698.72
2022-12-13T20:21:11.786Z,100709.09
2022-12-13T20:23:40.021Z,100708.56
2022-12-13T20:26:11.280Z,100709.09
2022-12-13T20:28:39.336Z,100701.56
2022-12-13T20:31:08.665Z,100700.75
2022-12-13T20:33:38.621Z,100699.81
2022-12-13T20:36:26.893Z,100703.41
2022-12-13T20:38:56.485Z,100703.16
2022-12-13T20:41:25.751Z,100701.47
2022-12-13T20:43:54.045Z,100698.59
2022-12-13T20:46:22.537Z,100689.50
2022-12-13T20:48:52.531Z,100691.88
2022-12-13T20:51:21.782Z,100680.72
2022-12-13T20:53:51.278Z,100685.00
2022-12-13T20:56:20.829Z,100678.78
2022-12-13T20:58:48.625Z,100680.19
2022-12-13T21:01:17.930Z,100677.56
2022-12-13T21:03:45.727Z,100669.88
2022-12-13T21:06:14.610Z,100675.63
2022-12-13T21:08:54.906Z,100665.09
2022-12-13T21:11:27.255Z,100662.59
2022-12-13T21:13:59.998Z,100654.72
2022-12-13T21:16:33.460Z,100657.34
2022-12-13T21:19:01.860Z,100658.72
2022-12-13T21:21:31.457Z,100654.31
2022-12-13T21:23:59.697Z,100654.22
2022-12-13T21:26:34.653Z,100640.41
2022-12-13T21:29:06.196Z,100637.25
2022-12-13T21:31:34.279Z,100633.81
2022-12-13T21:34:02.983Z,100634.75
2022-12-13T21:36:33.428Z,100633.50
2022-12-13T21:39:02.748Z,100626.41
2022-12-13T21:41:30.875Z,100633.06
2022-12-13T21:44:00.385Z,100630.72
2022-12-13T21:46:47.916Z,100640.41
2022-12-13T21:49:17.523Z,100631.06
2022-12-13T21:51:48.487Z,100629.13
2022-12-13T21:54:16.613Z,100618.66
2022-12-13T21:57:01.700Z,100625.72
2022-12-13T21:59:29.327Z,100621.47
2022-12-13T22:02:15.756Z,100614.16
2022-12-13T22:04:45.785Z,100614.53
2022-12-13T22:07:16.277Z,100610.81
2022-12-13T22:09:45.099Z,100608.78
2022-12-13T22:12:20.749Z,100607.91
2022-12-13T22:14:48.507Z,100607.28
2022-12-13T22:17:16.118Z,100600.59
2022-12-13T22:19:43.648Z,100599.19
2022-12-13T22:22:18.201Z,100593.38
2022-12-13T22:24:51.380Z,100592.84
2022-12-13T22:27:25.053Z,100585.19
2022-12-13T22:29:53.181Z,100584.34
2022-12-13T22:32:20.949Z,100587.22
2022-12-13T22:34:48.691Z,100587.78
2022-12-13T22:37:17.998Z,100586.00
2022-12-13T22:39:45.582Z,100590.75
2022-12-13T22:42:13.281Z,100581.41
2022-12-13T22:44:41.042Z,100580.56
2022-12-13T22:47:08.637Z,100581.72
2022-12-13T22:49:37.843Z,100578.16
2022-12-13T22:52:05.775Z,100575.16
2022-12-13T22:54:34.615Z,100583.13
2022-12-13T22:57:02.154Z,100586.69
2022-12-13T22:59:29.747Z,100580.06
2022-12-13T23:02:02.042Z,100582.41
2022-12-13T23:04:30.424Z,100578.59
2022-12-13T23:06:58.020Z,100576.69
2022-12-13T23:09:25.591Z,100570.00
2022-12-13T23:12:11.845Z,100575.34
2022-12-13T23:14:39.374Z,100569.75
2022-12-13T23:17:07.193Z,100560.91
2022-12-13T23:19:50.458Z,100561.63
2022-12-13T23:22:20.990Z,100558.31
2022-12-13T23:24:48.489Z,100562.75
2022-12-13T23:27:17.574Z,100564.81
2022-12-13T23:29:45.158Z,100558.81
2022-12-13T23:32:12.859Z,100562.81
2022-12-13T23:34:40.383Z,100560.47
2022-12-13T23:37:07.933Z,100555.38
2022-12-13T23:39:35.444Z,100558.84
2022-12-13T23:42:03.295Z,100559.88
2022-12-13T23:44:32.176Z,100556.56
2022-12-13T23:46:59.672Z,100549.41
2022-12-13T23:49:27.231Z,100547.06
2022-12-13T23:51:55.021Z,100539.75
2022-12-13T23:54:22.601Z,100533.25
2022-12-13T23:56:50.153Z,100530.34
2022-12-13T23:59:17.948Z,100529.25
